createdAt,value
2019-02-04T00:00:26.916Z,3.60
2019-02-04T00:02:53.868Z,3.40
2019-02-04T00:05:20.791Z,3.40
2019-02-04T00:07:47.725Z,3.50
2019-02-04T00:10:14.669Z,3.40
2019-02-04T00:12:41.675Z,3.40
2019-02-04T00:15:08.541Z,3.40
2019-02-04T00:17:35.501Z,3.40
2019-02-04T00:20:02.436Z,3.40
2019-02-04T00:22:29.404Z,3.30
2019-02-04T00:24:56.339Z,3.40
2019-02-04T00:27:23.276Z,3.80
2019-02-04T00:29:50.213Z,4.90
2019-02-04T00:32:17.208Z,3.50
2019-02-04T00:34:44.137Z,3.30
2019-02-04T00:37:11.067Z,3.20
2019-02-04T00:39:38.033Z,3.20
2019-02-04T00:42:04.965Z,4.40
2019-02-04T00:44:31.892Z,3.10
2019-02-04T00:46:58.849Z,3.10
2019-02-04T00:49:26.188Z,3.20
2019-02-04T00:51:53.233Z,3.10
2019-02-04T00:54:20.179Z,3.10
2019-02-04T00:56:47.115Z,3.00
2019-02-04T00:59:14.061Z,3.10
2019-02-04T01:01:41.027Z,3.10
2019-02-04T01:04:07.956Z,3.60
2019-02-04T01:06:34.911Z,2.30
2019-02-04T01:09:01.840Z,3.10
2019-02-04T01:11:28.999Z,4.70
2019-02-04T01:13:55.971Z,3.10
2019-02-04T01:16:22.941Z,3.20
2019-02-04T01:18:50.104Z,3.20
2019-02-04T01:21:17.041Z,4.20
2019-02-04T01:23:44.011Z,3.20
2019-02-04T01:26:10.956Z,3.20
2019-02-04T01:28:37.980Z,3.40
2019-02-04T01:31:04.972Z,3.10
2019-02-04T01:33:31.926Z,1.50
2019-02-04T01:35:58.864Z,3.70
2019-02-04T01:38:25.820Z,3.30
2019-02-04T01:40:52.788Z,4.40
2019-02-04T01:43:19.738Z,2.80
2019-02-04T01:45:46.682Z,2.30
2019-02-04T01:48:13.612Z,3.10
2019-02-04T01:50:40.939Z,3.00
2019-02-04T01:53:07.888Z,2.90
2019-02-04T01:55:34.815Z,2.90
2019-02-04T01:58:01.752Z,2.90
2019-02-04T02:00:31.180Z,2.80
2019-02-04T02:02:58.104Z,3.00
2019-02-04T02:05:25.059Z,2.80
2019-02-04T02:07:52.073Z,3.70
2019-02-04T02:10:20.281Z,2.80
2019-02-04T02:12:47.347Z,3.80
2019-02-04T02:15:14.320Z,2.90
2019-02-04T02:17:41.261Z,2.80
2019-02-04T02:20:09.715Z,3.10
2019-02-04T02:22:36.664Z,2.90
2019-02-04T02:25:04.024Z,2.90
2019-02-04T02:27:30.978Z,4.80
2019-02-04T02:29:57.911Z,2.70
2019-02-04T02:32:24.829Z,2.70
2019-02-04T02:34:51.757Z,2.70
2019-02-04T02:37:18.709Z,2.80
2019-02-04T02:39:45.642Z,2.90
2019-02-04T02:42:12.580Z,2.90
2019-02-04T02:44:39.526Z,2.70
2019-02-04T02:47:06.477Z,3.10
2019-02-04T02:49:33.417Z,3.60
2019-02-04T02:52:00.632Z,2.70
2019-02-04T02:54:27.637Z,2.70
2019-02-04T02:56:54.589Z,2.70
2019-02-04T02:59:21.565Z,2.70
2019-02-04T03:01:48.505Z,1.70
2019-02-04T03:04:15.462Z,2.60
2019-02-04T03:06:42.410Z,3.80
2019-02-04T03:09:09.369Z,2.80
2019-02-04T03:11:36.276Z,3.80
2019-02-04T03:14:03.333Z,3.30
2019-02-04T03:16:30.412Z,2.60
2019-02-04T03:18:57.636Z,2.40
2019-02-04T03:21:24.828Z,3.10
2019-02-04T03:23:51.781Z,4.10
2019-02-04T03:26:18.895Z,5.60
2019-02-04T03:28:46.255Z,2.30
2019-02-04T03:31:13.510Z,2.50
2019-02-04T03:33:40.658Z,2.30
2019-02-04T03:36:07.702Z,2.00
2019-02-04T03:38:34.792Z,2.10
2019-02-04T03:41:02.162Z,2.10
2019-02-04T03:43:29.331Z,2.10
2019-02-04T03:45:56.287Z,2.80
2019-02-04T03:48:23.381Z,2.10
2019-02-04T03:50:50.577Z,2.60
2019-02-04T03:53:18.423Z,2.00
2019-02-04T03:55:45.721Z,2.00
2019-02-04T03:58:12.753Z,2.50
2019-02-04T04:00:39.857Z,2.00
2019-02-04T04:03:06.999Z,2.00
2019-02-04T04:05:34.296Z,1.90
2019-02-04T04:08:01.622Z,1.80
2019-02-04T04:10:28.772Z,1.70
2019-02-04T04:12:55.769Z,1.80
2019-02-04T04:15:22.827Z,1.70
2019-02-04T04:17:50.219Z,2.50
2019-02-04T04:20:17.341Z,1.90
2019-02-04T04:22:44.268Z,1.70
2019-02-04T04:25:12.749Z,1.60
2019-02-04T04:27:39.789Z,1.90
2019-02-04T04:30:11.202Z,1.70
2019-02-04T04:32:38.402Z,1.90
2019-02-04T04:35:05.672Z,2.70
2019-02-04T04:37:32.750Z,1.70
2019-02-04T04:39:59.820Z,2.30
2019-02-04T04:42:27.039Z,1.60
2019-02-04T04:44:54.114Z,4.90
2019-02-04T04:47:21.057Z,1.60
2019-02-04T04:49:48.041Z,3.30
2019-02-04T04:52:14.963Z,1.80
2019-02-04T04:54:42.409Z,1.50
2019-02-04T04:57:09.382Z,1.50
2019-02-04T04:59:36.330Z,1.50
2019-02-04T05:02:03.962Z,1.50
2019-02-04T05:04:30.915Z,1.40
2019-02-04T05:07:00.519Z,1.40
2019-02-04T05:09:24.789Z,1.30
2019-02-04T05:11:51.739Z,1.40
2019-02-04T05:14:18.668Z,1.30
2019-02-04T05:16:45.602Z,1.30
2019-02-04T05:19:12.539Z,1.30
2019-02-04T05:21:39.469Z,1.30
2019-02-04T05:24:06.412Z,1.40
2019-02-04T05:26:33.346Z,1.30
2019-02-04T05:29:00.281Z,1.20
2019-02-04T05:31:27.229Z,1.00
2019-02-04T05:33:54.177Z,1.20
2019-02-04T05:36:21.125Z,1.30
2019-02-04T05:38:50.444Z,1.50
2019-02-04T05:41:17.396Z,0.80
2019-02-04T05:43:44.485Z,3.20
2019-02-04T05:46:11.506Z,2.90
2019-02-04T05:48:48.783Z,3.80
2019-02-04T05:51:05.593Z,1.10
2019-02-04T05:53:32.628Z,0.90
2019-02-04T05:56:00.107Z,1.50
2019-02-04T05:58:27.073Z,1.00
2019-02-04T06:00:53.997Z,0.90
2019-02-04T06:03:20.932Z,1.00
2019-02-04T06:05:47.865Z,0.90
2019-02-04T06:08:14.809Z,0.90
2019-02-04T06:10:41.752Z,0.90
2019-02-04T06:13:08.671Z,2.40
2019-02-04T06:15:35.587Z,0.70
2019-02-04T06:18:02.621Z,0.70
2019-02-04T06:20:29.460Z,0.70
2019-02-04T06:22:56.405Z,0.70
2019-02-04T06:25:23.359Z,0.90
2019-02-04T06:27:50.301Z,-1.60
2019-02-04T06:30:17.216Z,0.70
2019-02-04T06:32:44.179Z,0.70
2019-02-04T06:35:11.244Z,0.60
2019-02-04T06:37:38.179Z,1.30
2019-02-04T06:40:06.073Z,0.60
2019-02-04T06:42:33.008Z,0.60
2019-02-04T06:44:59.948Z,0.60
2019-02-04T06:47:26.900Z,0.90
2019-02-04T06:49:53.832Z,3.40
2019-02-04T06:52:20.757Z,0.90
2019-02-04T06:54:47.748Z,0.70
2019-02-04T06:57:14.881Z,0.50
2019-02-04T06:59:41.825Z,0.40
2019-02-04T07:02:08.772Z,0.50
2019-02-04T07:04:35.700Z,0.40
2019-02-04T07:07:02.632Z,0.50
2019-02-04T07:09:29.581Z,0.40
2019-02-04T07:11:56.534Z,0.80
2019-02-04T07:14:23.457Z,0.60
2019-02-04T07:16:50.424Z,0.60
2019-02-04T07:19:24.275Z,-0.10
2019-02-04T07:21:44.311Z,0.60
2019-02-04T07:24:11.280Z,0.80
2019-02-04T07:26:38.208Z,0.60
2019-02-04T07:29:05.537Z,-0.30
2019-02-04T07:31:32.478Z,2.20
2019-02-04T07:33:59.436Z,0.60
2019-02-04T07:36:26.378Z,1.00
2019-02-04T07:38:53.333Z,2.30
2019-02-04T07:41:20.333Z,0.60
2019-02-04T07:43:47.229Z,0.60
2019-02-04T07:46:14.192Z,0.60
2019-02-04T07:48:41.148Z,0.50
2019-02-04T07:51:08.085Z,0.60
2019-02-04T07:53:35.040Z,0.80
2019-02-04T07:56:01.987Z,-0.40
2019-02-04T07:58:29.451Z,1.10
2019-02-04T08:00:56.421Z,1.10
2019-02-04T08:03:23.368Z,1.20
2019-02-04T08:05:50.294Z,1.20
2019-02-04T08:08:17.256Z,1.50
2019-02-04T08:10:44.195Z,2.10
2019-02-04T08:13:11.148Z,3.70
2019-02-04T08:15:38.134Z,2.60
2019-02-04T08:18:06.296Z,2.00
2019-02-04T08:20:33.307Z,2.60
2019-02-04T08:23:00.296Z,2.60
2019-02-04T08:25:27.267Z,2.60
2019-02-04T08:27:54.216Z,3.90
2019-02-04T08:30:24.824Z,3.60
2019-02-04T08:32:51.792Z,2.80
2019-02-04T08:35:18.748Z,3.20
2019-02-04T08:37:45.748Z,3.20
2019-02-04T08:40:12.869Z,3.60
2019-02-04T08:42:39.894Z,2.10
2019-02-04T08:45:07.102Z,3.20
2019-02-04T08:47:35.293Z,4.30
2019-02-04T08:50:02.455Z,4.30
2019-02-04T08:52:29.525Z,2.70
2019-02-04T08:54:56.529Z,4.90
2019-02-04T08:57:23.533Z,9.20
2019-02-04T08:59:51.992Z,7.90
2019-02-04T09:02:19.025Z,8.00
2019-02-04T09:04:46.058Z,7.40
2019-02-04T09:07:13.077Z,9.10
2019-02-04T09:09:40.081Z,9.90
2019-02-04T09:12:07.063Z,10.60
2019-02-04T09:14:34.086Z,11.10
2019-02-04T09:17:01.115Z,11.50
2019-02-04T09:19:28.125Z,10.70
2019-02-04T09:21:55.154Z,12.20
2019-02-04T09:24:22.139Z,11.10
2019-02-04T09:26:49.124Z,12.80
2019-02-04T09:29:16.129Z,13.30
2019-02-04T09:31:43.101Z,13.50
2019-02-04T09:34:10.081Z,12.90
2019-02-04T09:36:37.097Z,14.00
2019-02-04T09:39:07.241Z,14.80
2019-02-04T09:41:34.234Z,13.70
2019-02-04T09:44:01.222Z,15.30
2019-02-04T09:46:28.223Z,15.00
2019-02-04T09:48:55.195Z,15.60
2019-02-04T09:51:22.216Z,12.20
2019-02-04T09:53:49.223Z,15.90
2019-02-04T09:56:16.222Z,14.30
2019-02-04T09:58:43.214Z,14.80
2019-02-04T10:01:10.834Z,14.30
2019-02-04T10:03:37.840Z,16.40
2019-02-04T10:06:04.916Z,13.50
2019-02-04T10:08:31.900Z,15.10
2019-02-04T10:10:58.905Z,17.10
2019-02-04T10:13:25.925Z,15.50
2019-02-04T10:15:52.922Z,17.60
2019-02-04T10:18:19.962Z,15.90
2019-02-04T10:20:46.973Z,17.10
2019-02-04T10:23:14.024Z,17.10
2019-02-04T10:25:41.766Z,16.80
2019-02-04T10:28:09.858Z,17.80
2019-02-04T10:30:36.812Z,16.30
2019-02-04T10:33:03.797Z,16.70
2019-02-04T10:35:30.797Z,16.80
2019-02-04T10:37:57.781Z,17.40
2019-02-04T10:40:25.689Z,16.10
2019-02-04T10:42:52.696Z,16.80
2019-02-04T10:45:19.814Z,18.10
2019-02-04T10:47:46.806Z,17.20
2019-02-04T10:50:16.730Z,16.70
2019-02-04T10:52:43.745Z,17.20
2019-02-04T10:55:10.912Z,18.20
2019-02-04T10:57:40.620Z,17.90
2019-02-04T11:00:06.800Z,17.70
2019-02-04T11:02:35.265Z,17.20
2019-02-04T11:05:02.332Z,18.10
2019-02-04T11:07:29.280Z,18.50
2019-02-04T11:09:56.278Z,17.50
2019-02-04T11:12:23.439Z,18.90
2019-02-04T11:14:50.276Z,17.20
2019-02-04T11:17:17.343Z,18.80
2019-02-04T11:19:44.314Z,17.10
2019-02-04T11:22:11.359Z,19.20
2019-02-04T11:24:38.309Z,19.00
2019-02-04T11:27:05.353Z,19.80
2019-02-04T11:29:32.368Z,19.80
2019-02-04T11:31:59.426Z,18.10
2019-02-04T11:34:26.402Z,17.00
2019-02-04T11:36:53.417Z,19.00
2019-02-04T11:39:20.455Z,18.80
2019-02-04T11:41:47.443Z,18.80
2019-02-04T11:44:14.470Z,19.10
2019-02-04T11:46:41.447Z,17.30
2019-02-04T11:49:08.441Z,15.60
2019-02-04T11:51:35.464Z,14.20
2019-02-04T11:54:02.750Z,11.70
2019-02-04T11:56:29.773Z,12.90
2019-02-04T11:58:56.782Z,13.00
2019-02-04T12:01:23.789Z,9.90
2019-02-04T12:07:17.944Z,12.00
2019-02-04T12:09:44.969Z,11.90
2019-02-04T12:12:11.984Z,12.10
2019-02-04T12:14:38.966Z,14.20
2019-02-04T12:17:05.969Z,15.60
2019-02-04T12:19:32.962Z,14.70
2019-02-04T12:22:02.685Z,15.20
2019-02-04T12:24:27.006Z,17.90
2019-02-04T12:26:53.990Z,17.90
2019-02-04T12:29:20.964Z,16.80
2019-02-04T12:31:48.011Z,18.70
2019-02-04T12:34:15.020Z,19.10
2019-02-04T12:36:42.013Z,18.50
2019-02-04T12:39:16.864Z,18.30
2019-02-04T12:41:43.876Z,17.60
2019-02-04T12:44:10.893Z,16.90
2019-02-04T12:46:37.917Z,16.30
2019-02-04T12:49:04.942Z,15.20
2019-02-04T12:51:33.770Z,14.50
2019-02-04T12:53:59.369Z,14.20
2019-02-04T12:56:26.380Z,13.90
2019-02-04T12:58:55.586Z,13.40
2019-02-04T13:01:20.413Z,11.60
2019-02-04T13:03:47.397Z,11.10
2019-02-04T13:06:14.962Z,10.90
2019-02-04T13:08:41.970Z,11.50
2019-02-04T13:11:09.036Z,10.20
2019-02-04T13:13:36.034Z,11.00
2019-02-04T13:16:03.052Z,8.80
2019-02-04T13:18:30.067Z,10.00
2019-02-04T13:20:57.065Z,10.10
2019-02-04T13:23:24.093Z,6.90
2019-02-04T13:25:51.106Z,7.10
2019-02-04T13:28:19.693Z,9.30
2019-02-04T13:30:46.722Z,7.90
2019-02-04T13:33:13.721Z,9.20
2019-02-04T13:35:40.743Z,8.30
2019-02-04T13:38:07.763Z,9.20
2019-02-04T13:40:34.764Z,8.80
2019-02-04T13:43:01.756Z,8.70
2019-02-04T13:45:28.773Z,7.90
2019-02-04T13:47:55.759Z,8.10
2019-02-04T13:50:22.808Z,8.40
2019-02-04T13:52:49.854Z,8.50
2019-02-04T13:55:21.665Z,6.70
2019-02-04T13:57:48.659Z,8.80
2019-02-04T14:00:15.781Z,8.60
2019-02-04T14:02:42.821Z,10.00
2019-02-04T14:05:09.976Z,8.10
2019-02-04T14:07:37.683Z,8.50
2019-02-04T14:10:07.638Z,8.40
2019-02-04T14:12:34.633Z,9.50
2019-02-04T14:15:01.658Z,7.40
2019-02-04T14:17:28.662Z,6.40
2019-02-04T14:19:55.682Z,8.00
2019-02-04T14:22:22.752Z,8.00
2019-02-04T14:24:49.734Z,9.60
2019-02-04T14:27:16.726Z,7.10
2019-02-04T14:29:43.753Z,7.70
2019-02-04T14:32:10.779Z,7.60
2019-02-04T14:34:37.777Z,6.70
2019-02-04T14:37:04.795Z,7.40
2019-02-04T14:39:31.801Z,7.60
2019-02-04T14:41:58.837Z,6.00
2019-02-04T14:44:33.214Z,5.90
2019-02-04T14:47:29.344Z,9.80
2019-02-04T14:50:05.510Z,5.50
2019-02-04T14:52:44.713Z,5.90
2019-02-04T14:55:26.158Z,7.20
2019-02-04T14:58:03.978Z,7.20
2019-02-04T15:00:47.488Z,7.10
2019-02-04T15:03:45.658Z,7.00
2019-02-04T15:06:22.536Z,6.90
2019-02-04T15:09:12.199Z,4.80
2019-02-04T15:11:47.522Z,6.90
2019-02-04T15:14:54.676Z,6.80
2019-02-04T15:17:29.981Z,6.90
2019-02-04T15:20:20.189Z,4.20
2019-02-04T15:23:00.152Z,6.60
2019-02-04T15:25:37.356Z,6.60
2019-02-04T15:28:49.386Z,5.80
2019-02-04T15:31:41.729Z,6.00
2019-02-04T15:34:21.837Z,6.40
2019-02-04T15:37:02.185Z,7.90
2019-02-04T15:39:42.357Z,6.40
2019-02-04T15:42:41.509Z,3.50
2019-02-04T15:45:49.473Z,6.30
2019-02-04T15:48:22.227Z,4.40
2019-02-04T15:50:56.451Z,6.10
2019-02-04T15:53:23.401Z,6.00
2019-02-04T15:55:50.433Z,6.00
2019-02-04T15:58:17.453Z,6.00
2019-02-04T16:00:44.484Z,5.90
2019-02-04T16:03:11.526Z,7.90
2019-02-04T16:05:38.690Z,5.70
2019-02-04T16:08:05.540Z,6.60
2019-02-04T16:10:33.872Z,5.90
2019-02-04T16:13:00.885Z,3.50
2019-02-04T16:15:27.969Z,4.10
2019-02-04T16:17:54.973Z,5.50
2019-02-04T16:20:23.421Z,6.00
2019-02-04T16:22:58.036Z,6.30
2019-02-04T16:25:17.428Z,5.20
2019-02-04T16:27:44.421Z,5.00
2019-02-04T16:30:15.417Z,5.20
2019-02-04T16:32:42.408Z,5.50
2019-02-04T16:35:11.361Z,3.90
2019-02-04T16:37:38.327Z,7.00
2019-02-04T16:40:06.749Z,6.40
2019-02-04T16:42:33.739Z,4.80
2019-02-04T16:45:00.728Z,5.70
2019-02-04T16:47:27.731Z,3.80
2019-02-04T16:49:54.771Z,6.40
2019-02-04T16:52:21.776Z,3.80
2019-02-04T16:54:48.789Z,4.30
2019-02-04T16:57:15.841Z,4.70
2019-02-04T16:59:42.843Z,4.40
2019-02-04T17:02:09.852Z,4.90
2019-02-04T17:04:36.846Z,5.90
2019-02-04T17:07:03.885Z,5.30
2019-02-04T17:09:30.867Z,5.60
2019-02-04T17:11:58.455Z,4.30
2019-02-04T17:14:25.472Z,4.20
2019-02-04T17:16:52.472Z,3.80
2019-02-04T17:19:19.540Z,5.20
2019-02-04T17:21:46.547Z,4.90
2019-02-04T17:24:13.554Z,5.20
2019-02-04T17:26:40.595Z,4.70
2019-02-04T17:29:07.585Z,2.80
2019-02-04T17:31:34.613Z,3.90
2019-02-04T17:34:01.676Z,3.80
2019-02-04T17:36:28.676Z,3.80
2019-02-04T17:38:55.691Z,2.90
2019-02-04T17:41:22.751Z,5.50
2019-02-04T17:43:49.755Z,2.60
2019-02-04T17:46:16.772Z,3.80
2019-02-04T17:48:44.524Z,5.10
2019-02-04T17:51:11.564Z,3.70
2019-02-04T17:53:38.533Z,3.70
2019-02-04T17:56:07.243Z,4.60
2019-02-04T17:58:34.261Z,3.60
2019-02-04T18:01:01.293Z,5.00
2019-02-04T18:03:28.472Z,6.20
2019-02-04T18:05:55.302Z,4.40
2019-02-04T18:08:22.330Z,3.20
2019-02-04T18:10:49.352Z,3.90
2019-02-04T18:13:16.967Z,4.40
2019-02-04T18:15:43.996Z,3.30
2019-02-04T18:18:11.011Z,4.80
2019-02-04T18:20:38.002Z,3.90
2019-02-04T18:23:04.998Z,5.60
2019-02-04T18:25:32.014Z,3.00
2019-02-04T18:27:58.977Z,4.60
2019-02-04T18:30:25.966Z,2.90
2019-02-04T18:32:52.985Z,3.00
2019-02-04T18:35:19.982Z,1.60
2019-02-04T18:37:47.039Z,6.10
2019-02-04T18:42:42.769Z,1.10
2019-02-04T18:45:14.076Z,5.10
2019-02-04T18:47:41.073Z,2.40
2019-02-04T18:50:08.042Z,4.20
2019-02-04T18:52:37.069Z,3.20
2019-02-04T18:55:01.967Z,2.70
2019-02-04T18:57:28.971Z,4.30
2019-02-04T18:59:55.905Z,4.80
2019-02-04T19:02:22.849Z,3.90
2019-02-04T19:04:49.779Z,2.70
2019-02-04T19:07:16.734Z,2.80
2019-02-04T19:09:43.724Z,3.00
2019-02-04T19:12:10.660Z,2.70
2019-02-04T19:14:39.619Z,4.00
2019-02-04T19:17:06.634Z,2.60
2019-02-04T19:19:33.625Z,0.90
2019-02-04T19:22:00.633Z,3.20
2019-02-04T19:24:27.596Z,2.60
2019-02-04T19:26:54.568Z,2.80
2019-02-04T19:29:21.542Z,0.80
2019-02-04T19:31:48.556Z,2.10
2019-02-04T19:34:15.537Z,2.40
2019-02-04T19:36:42.529Z,2.40
2019-02-04T19:39:09.995Z,2.30
2019-02-04T19:41:37.012Z,3.80
2019-02-04T19:44:04.038Z,2.60
2019-02-04T19:46:31.072Z,2.30
2019-02-04T19:48:58.077Z,2.30
2019-02-04T19:51:25.056Z,3.80
2019-02-04T19:53:52.109Z,2.40
2019-02-04T19:56:19.157Z,3.30
2019-02-04T19:58:46.111Z,2.20
2019-02-04T20:01:13.139Z,2.10
2019-02-04T20:03:40.105Z,3.40
2019-02-04T20:06:07.193Z,2.80
2019-02-04T20:08:34.225Z,3.90
2019-02-04T20:11:02.654Z,2.00
2019-02-04T20:13:28.245Z,4.30
2019-02-04T20:15:55.510Z,3.60
2019-02-04T20:18:22.488Z,2.20
2019-02-04T20:20:49.494Z,5.40
2019-02-04T20:23:16.477Z,2.70
2019-02-04T20:25:43.452Z,2.40
2019-02-04T20:28:10.453Z,2.90
2019-02-04T20:30:45.705Z,2.00
2019-02-04T20:33:06.656Z,2.10
2019-02-04T20:35:33.708Z,3.10
2019-02-04T20:38:00.705Z,1.00
2019-02-04T20:40:27.738Z,4.20
2019-02-04T20:42:54.802Z,2.10
2019-02-04T20:45:21.791Z,2.10
2019-02-04T20:47:48.833Z,2.00
2019-02-04T20:50:19.593Z,3.10
2019-02-04T20:52:46.590Z,-0.30
2019-02-04T20:55:13.678Z,2.00
2019-02-04T20:57:40.626Z,1.40
2019-02-04T21:00:11.594Z,2.10
2019-02-04T21:02:38.644Z,3.70
2019-02-04T21:05:05.687Z,1.00
2019-02-04T21:07:32.668Z,3.00
2019-02-04T21:09:59.611Z,2.10
2019-02-04T21:12:26.681Z,1.00
2019-02-04T21:14:53.730Z,2.20
2019-02-04T21:17:21.295Z,2.30
2019-02-04T21:19:48.234Z,2.20
2019-02-04T21:22:15.236Z,2.20
2019-02-04T21:24:42.217Z,2.30
2019-02-04T21:27:09.166Z,2.30
2019-02-04T21:29:36.491Z,2.40
2019-02-04T21:32:03.545Z,1.30
2019-02-04T21:34:30.561Z,2.20
2019-02-04T21:36:57.566Z,2.80
2019-02-04T21:39:24.536Z,4.40
2019-02-04T21:41:51.596Z,3.10
2019-02-04T21:44:18.642Z,3.50
2019-02-04T21:46:45.686Z,1.30
2019-02-04T21:49:12.676Z,1.90
2019-02-04T21:51:39.720Z,2.80
2019-02-04T21:54:06.737Z,2.10
2019-02-04T21:56:33.756Z,2.20
2019-02-04T21:59:00.827Z,4.20
2019-02-04T22:01:27.826Z,0.20
2019-02-04T22:03:54.823Z,3.80
2019-02-04T22:06:21.870Z,3.70
2019-02-04T22:08:48.933Z,2.00
2019-02-04T22:11:15.945Z,1.90
2019-02-04T22:13:42.976Z,3.70
2019-02-04T22:16:09.968Z,1.80
2019-02-04T22:18:38.409Z,3.20
2019-02-04T22:21:05.517Z,1.80
2019-02-04T22:23:32.565Z,1.70
2019-02-04T22:25:59.578Z,-0.60
2019-02-04T22:28:26.621Z,4.50
2019-02-04T22:30:53.588Z,3.80
2019-02-04T22:33:20.694Z,3.30
2019-02-04T22:35:47.748Z,1.70
2019-02-04T22:38:14.783Z,3.70
2019-02-04T22:40:41.781Z,1.60
2019-02-04T22:43:08.871Z,1.80
2019-02-04T22:45:35.881Z,2.30
2019-02-04T22:48:02.927Z,1.50
2019-02-04T22:50:30.382Z,3.20
2019-02-04T22:52:57.564Z,1.60
2019-02-04T22:55:32.054Z,2.80
2019-02-04T22:57:51.737Z,3.20
2019-02-04T23:00:27.624Z,1.70
2019-02-04T23:02:54.669Z,3.20
2019-02-04T23:05:21.769Z,1.70
2019-02-04T23:07:48.760Z,2.40
2019-02-04T23:10:15.814Z,1.70
2019-02-04T23:12:42.880Z,1.80
2019-02-04T23:15:09.939Z,1.60
2019-02-04T23:17:37.127Z,3.30
2019-02-04T23:20:04.623Z,3.90
2019-02-04T23:22:31.681Z,1.50
2019-02-04T23:24:58.672Z,1.60
2019-02-04T23:27:25.626Z,3.80
2019-02-04T23:29:52.566Z,1.90
2019-02-04T23:32:19.553Z,1.80
2019-02-04T23:34:46.788Z,4.30
2019-02-04T23:37:13.765Z,1.70
2019-02-04T23:39:40.763Z,1.90
2019-02-04T23:42:07.714Z,1.70
2019-02-04T23:44:34.693Z,1.60
2019-02-04T23:47:01.669Z,1.70
2019-02-04T23:49:28.637Z,1.40
2019-02-04T23:51:55.617Z,1.40
2019-02-04T23:54:22.660Z,1.50
2019-02-04T23:56:49.610Z,2.00
2019-02-04T23:59:16.593Z,1.40
